createdAt,value
2023-05-21T00:01:42.552Z,19.31
2023-05-21T00:04:09.644Z,19.35
2023-05-21T00:06:36.420Z,19.38
2023-05-21T00:09:04.487Z,19.42
2023-05-21T00:11:31.685Z,19.42
2023-05-21T00:13:58.884Z,19.43
2023-05-21T00:16:26.002Z,19.50
2023-05-21T00:18:54.722Z,19.47
2023-05-21T00:21:25.923Z,19.51
2023-05-21T00:23:56.555Z,19.55
2023-05-21T00:26:26.399Z,19.58
2023-05-21T00:28:57.152Z,19.60
2023-05-21T00:31:24.140Z,19.62
2023-05-21T00:33:51.051Z,19.59
2023-05-21T00:36:17.867Z,19.65
2023-05-21T00:38:45.685Z,19.55
2023-05-21T00:41:13.026Z,19.57
2023-05-21T00:43:41.935Z,19.60
2023-05-21T00:46:16.504Z,19.60
2023-05-21T00:48:45.162Z,19.62
2023-05-21T00:51:16.706Z,19.59
2023-05-21T00:53:44.692Z,19.59
2023-05-21T00:56:11.549Z,19.56
2023-05-21T00:58:39.496Z,19.55
2023-05-21T01:01:07.114Z,19.53
2023-05-21T01:03:38.327Z,19.55
2023-05-21T01:06:06.413Z,19.51
2023-05-21T01:08:34.907Z,19.50
2023-05-21T01:11:02.653Z,19.51
2023-05-21T01:13:29.678Z,19.49
2023-05-21T01:15:58.598Z,19.46
2023-05-21T01:18:26.206Z,19.43
2023-05-21T01:20:53.730Z,19.40
2023-05-21T01:23:21.128Z,19.40
2023-05-21T01:25:47.960Z,19.40
2023-05-21T01:28:14.993Z,19.38
2023-05-21T01:30:42.896Z,19.38
2023-05-21T01:33:27.046Z,19.27
2023-05-21T01:35:56.730Z,19.35
2023-05-21T01:38:31.274Z,19.35
2023-05-21T01:41:10.918Z,19.26
2023-05-21T01:43:39.613Z,19.30
2023-05-21T01:46:08.143Z,19.31
2023-05-21T01:48:36.316Z,19.26
2023-05-21T01:51:05.424Z,19.29
2023-05-21T01:53:32.198Z,19.33
2023-05-21T01:55:59.360Z,19.35
2023-05-21T01:58:26.507Z,19.28
2023-05-21T02:00:53.346Z,19.30
2023-05-21T02:03:20.735Z,19.33
2023-05-21T02:05:47.739Z,19.30
2023-05-21T02:08:19.583Z,19.28
2023-05-21T02:10:46.381Z,19.26
2023-05-21T02:13:13.322Z,19.20
2023-05-21T02:15:40.247Z,19.13
2023-05-21T02:18:07.190Z,19.21
2023-05-21T02:20:34.175Z,19.24
2023-05-21T02:23:01.222Z,19.17
2023-05-21T02:25:28.198Z,19.20
2023-05-21T02:27:56.623Z,19.19
2023-05-21T02:30:23.845Z,19.19
2023-05-21T02:32:50.999Z,19.20
2023-05-21T02:35:18.085Z,19.19
2023-05-21T02:37:45.075Z,19.19
2023-05-21T02:40:12.061Z,19.17
2023-05-21T02:42:41.424Z,19.19
2023-05-21T02:45:12.965Z,19.22
2023-05-21T02:47:42.160Z,19.21
2023-05-21T02:50:09.369Z,19.17
2023-05-21T02:52:43.461Z,19.16
2023-05-21T02:55:10.277Z,19.15
2023-05-21T02:57:37.286Z,19.13
2023-05-21T03:00:06.060Z,19.17
2023-05-21T03:02:33.289Z,19.13
2023-05-21T03:05:00.679Z,19.14
2023-05-21T03:07:27.645Z,19.08
2023-05-21T03:09:54.854Z,19.12
2023-05-21T03:12:22.097Z,19.08
2023-05-21T03:14:51.482Z,19.05
2023-05-21T03:17:20.601Z,19.09
2023-05-21T03:19:49.133Z,19.02
2023-05-21T03:22:16.185Z,19.08
2023-05-21T03:24:45.099Z,19.01
2023-05-21T03:27:12.382Z,18.96
2023-05-21T03:29:40.094Z,18.97
2023-05-21T03:32:08.067Z,18.98
2023-05-21T03:34:35.602Z,18.99
2023-05-21T03:37:03.343Z,19.00
2023-05-21T03:39:31.456Z,18.97
2023-05-21T03:41:59.145Z,19.00
2023-05-21T03:44:41.684Z,18.95
2023-05-21T03:47:27.406Z,19.00
2023-05-21T03:49:54.920Z,18.95
2023-05-21T03:52:21.739Z,18.91
2023-05-21T03:54:48.627Z,18.91
2023-05-21T03:57:15.857Z,18.94
2023-05-21T03:59:43.644Z,18.95
2023-05-21T04:02:10.692Z,18.92
2023-05-21T04:04:37.807Z,18.89
2023-05-21T04:07:05.401Z,18.92
2023-05-21T04:09:32.177Z,18.87
2023-05-21T04:11:58.935Z,18.89
2023-05-21T04:14:25.833Z,18.86
2023-05-21T04:16:52.887Z,18.84
2023-05-21T04:19:21.033Z,18.81
2023-05-21T04:21:48.950Z,18.80
2023-05-21T04:24:16.257Z,18.83
2023-05-21T04:27:01.125Z,18.85
2023-05-21T04:29:31.358Z,18.83
2023-05-21T04:31:58.880Z,18.70
2023-05-21T04:34:25.860Z,18.81
2023-05-21T04:36:52.692Z,18.81
2023-05-21T04:39:19.647Z,18.83
2023-05-21T04:41:46.588Z,18.88
2023-05-21T04:44:14.876Z,18.88
2023-05-21T04:46:46.327Z,18.91
2023-05-21T04:49:13.637Z,18.89
2023-05-21T04:51:40.435Z,18.88
2023-05-21T04:54:07.983Z,18.92
2023-05-21T04:56:35.728Z,18.88
2023-05-21T04:59:05.561Z,18.83
2023-05-21T05:01:35.421Z,18.90
2023-05-21T05:04:02.351Z,18.92
2023-05-21T05:06:29.699Z,18.87
2023-05-21T05:08:56.691Z,18.93
2023-05-21T05:11:23.890Z,18.97
2023-05-21T05:13:51.068Z,18.96
2023-05-21T05:16:24.698Z,18.98
2023-05-21T05:18:52.713Z,18.97
2023-05-21T05:21:21.866Z,19.00
2023-05-21T05:23:48.714Z,18.95
2023-05-21T05:26:15.846Z,19.01
2023-05-21T05:28:42.842Z,19.04
2023-05-21T05:31:09.802Z,19.03
2023-05-21T05:33:36.720Z,19.00
2023-05-21T05:36:03.741Z,19.02
2023-05-21T05:38:31.133Z,19.05
2023-05-21T05:40:57.990Z,19.05
2023-05-21T05:43:26.388Z,19.06
2023-05-21T05:45:53.539Z,19.10
2023-05-21T05:48:20.789Z,19.11
2023-05-21T05:50:48.285Z,19.06
2023-05-21T05:53:15.411Z,19.15
2023-05-21T05:55:42.591Z,19.21
2023-05-21T05:58:09.547Z,19.19
2023-05-21T06:00:48.842Z,19.17
2023-05-21T06:03:16.177Z,19.27
2023-05-21T06:05:43.217Z,19.29
2023-05-21T06:08:10.877Z,19.37
2023-05-21T06:10:37.835Z,19.44
2023-05-21T06:13:04.699Z,19.48
2023-05-21T06:15:31.507Z,19.45
2023-05-21T06:17:58.300Z,19.48
2023-05-21T06:20:25.078Z,19.44
2023-05-21T06:22:53.361Z,19.49
2023-05-21T06:25:20.481Z,19.47
2023-05-21T06:27:47.417Z,19.47
2023-05-21T06:30:20.075Z,19.48
2023-05-21T06:32:47.071Z,19.53
2023-05-21T06:35:14.918Z,19.56
2023-05-21T06:37:43.017Z,19.49
2023-05-21T06:40:10.273Z,19.49
2023-05-21T06:42:37.910Z,19.50
2023-05-21T06:45:37.137Z,19.58
2023-05-21T06:48:24.423Z,19.59
2023-05-21T06:50:51.450Z,19.58
2023-05-21T06:53:18.684Z,19.63
2023-05-21T06:55:45.998Z,19.68
2023-05-21T06:58:22.288Z,19.76
2023-05-21T07:00:49.345Z,19.79
2023-05-21T07:03:16.355Z,19.78
2023-05-21T07:05:43.282Z,19.77
2023-05-21T07:08:12.189Z,19.79
2023-05-21T07:10:39.295Z,19.82
2023-05-21T07:13:06.159Z,19.82
2023-05-21T07:15:33.047Z,19.85
2023-05-21T07:18:02.321Z,19.85
2023-05-21T07:20:29.382Z,19.90
2023-05-21T07:22:59.370Z,19.99
2023-05-21T07:25:26.099Z,19.98
2023-05-21T07:27:53.028Z,20.00
2023-05-21T07:30:20.793Z,20.05
2023-05-21T07:32:47.674Z,20.06
2023-05-21T07:35:14.750Z,20.15
2023-05-21T07:37:41.911Z,20.22
2023-05-21T07:40:10.026Z,20.27
2023-05-21T07:42:37.307Z,20.33
2023-05-21T07:45:04.595Z,20.36
2023-05-21T07:47:36.335Z,20.38
2023-05-21T07:50:03.252Z,20.42
2023-05-21T07:52:30.210Z,20.48
2023-05-21T07:54:57.053Z,20.55
2023-05-21T07:57:25.726Z,20.60
2023-05-21T07:59:59.624Z,20.56
2023-05-21T08:02:26.931Z,20.63
2023-05-21T08:04:55.101Z,20.65
2023-05-21T08:07:22.134Z,20.72
2023-05-21T08:09:48.986Z,20.77
2023-05-21T08:12:16.016Z,20.83
2023-05-21T08:14:43.752Z,20.85
2023-05-21T08:17:12.616Z,20.90
2023-05-21T08:19:39.564Z,20.89
2023-05-21T08:22:06.957Z,20.99
2023-05-21T08:24:35.579Z,20.92
2023-05-21T08:27:02.345Z,20.90
2023-05-21T08:29:31.798Z,20.95
2023-05-21T08:31:59.763Z,21.01
2023-05-21T08:34:26.666Z,21.06
2023-05-21T08:37:05.541Z,21.01
2023-05-21T08:39:58.412Z,20.95
2023-05-21T08:42:37.603Z,20.95
2023-05-21T08:45:07.148Z,21.00
2023-05-21T08:47:37.255Z,21.02
2023-05-21T08:50:16.378Z,21.03
2023-05-21T08:52:43.149Z,21.16
2023-05-21T08:55:10.711Z,21.11
2023-05-21T08:57:42.739Z,21.12
2023-05-21T09:00:11.882Z,21.17
2023-05-21T09:02:43.634Z,21.19
2023-05-21T09:05:11.783Z,21.22
2023-05-21T09:08:11.548Z,21.10
2023-05-21T09:10:51.833Z,21.18
2023-05-21T09:13:21.666Z,21.19
2023-05-21T09:15:51.471Z,21.18
2023-05-21T09:18:19.425Z,21.19
2023-05-21T09:20:59.589Z,21.18
2023-05-21T09:23:28.764Z,21.22
2023-05-21T09:25:55.524Z,21.26
2023-05-21T09:28:28.173Z,21.07
2023-05-21T09:30:54.968Z,21.23
2023-05-21T09:33:27.314Z,21.29
2023-05-21T09:35:54.549Z,21.29
2023-05-21T09:38:25.881Z,21.32
2023-05-21T09:40:55.068Z,21.37
2023-05-21T09:43:22.796Z,21.40
2023-05-21T09:45:58.907Z,21.41
2023-05-21T09:48:42.857Z,21.37
2023-05-21T09:51:18.572Z,21.41
2023-05-21T09:53:50.024Z,21.45
2023-05-21T09:56:18.928Z,21.52
2023-05-21T09:58:46.363Z,21.57
2023-05-21T10:01:13.577Z,21.59
2023-05-21T10:03:40.921Z,21.63
2023-05-21T10:06:11.604Z,21.62
2023-05-21T10:08:43.515Z,21.65
2023-05-21T10:11:10.737Z,21.70
2023-05-21T10:13:39.827Z,21.72
2023-05-21T10:16:08.010Z,21.73
2023-05-21T10:18:49.518Z,21.71
2023-05-21T10:21:16.546Z,21.78
2023-05-21T10:23:44.064Z,21.82
2023-05-21T10:26:11.322Z,21.86
2023-05-21T10:28:38.108Z,21.91
2023-05-21T10:31:05.070Z,21.95
2023-05-21T10:33:32.157Z,21.98
2023-05-21T10:35:59.602Z,22.01
2023-05-21T10:38:27.834Z,22.04
2023-05-21T10:40:55.902Z,22.05
2023-05-21T10:44:03.754Z,21.97
2023-05-21T10:46:53.114Z,22.07
2023-05-21T10:49:38.405Z,22.02
2023-05-21T10:52:20.332Z,22.08
2023-05-21T10:55:41.444Z,22.09
2023-05-21T10:58:31.609Z,22.09
2023-05-21T11:00:59.389Z,22.18
2023-05-21T11:03:26.434Z,22.18
2023-05-21T11:05:56.292Z,22.22
2023-05-21T11:08:36.077Z,22.25
2023-05-21T11:11:03.899Z,22.27
2023-05-21T11:13:50.276Z,22.19
2023-05-21T11:16:17.728Z,22.34
2023-05-21T11:18:47.436Z,22.31
2023-05-21T11:21:18.552Z,22.40
2023-05-21T11:23:52.381Z,22.38
2023-05-21T11:26:20.841Z,22.47
2023-05-21T11:28:50.844Z,22.51
2023-05-21T11:31:25.840Z,22.54
2023-05-21T11:34:11.237Z,22.53
2023-05-21T11:36:39.446Z,22.65
2023-05-21T11:39:21.901Z,22.64
2023-05-21T11:41:58.254Z,22.71
2023-05-21T11:44:44.553Z,22.61
2023-05-21T11:47:12.628Z,22.72
2023-05-21T11:49:39.559Z,22.72
2023-05-21T11:52:08.270Z,22.76
2023-05-21T11:54:40.957Z,22.74
2023-05-21T11:57:07.997Z,22.60
2023-05-21T11:59:35.733Z,22.80
2023-05-21T12:02:03.440Z,22.80
2023-05-21T12:04:37.551Z,22.87
2023-05-21T12:07:07.762Z,22.92
2023-05-21T12:09:45.282Z,22.90
2023-05-21T12:12:14.533Z,22.97
2023-05-21T12:14:45.482Z,23.01
2023-05-21T12:17:13.531Z,23.02
2023-05-21T12:19:41.116Z,23.06
2023-05-21T12:22:08.632Z,23.10
2023-05-21T12:24:37.182Z,23.09
2023-05-21T12:27:09.541Z,23.12
2023-05-21T12:29:38.260Z,23.14
2023-05-21T12:32:07.374Z,23.17
2023-05-21T12:34:44.935Z,23.18
2023-05-21T12:37:14.598Z,23.23
2023-05-21T12:39:45.200Z,23.25
2023-05-21T12:42:12.334Z,23.28
2023-05-21T12:44:46.522Z,23.33
2023-05-21T12:47:13.846Z,23.29
2023-05-21T12:49:42.909Z,23.30
2023-05-21T12:52:11.578Z,23.33
2023-05-21T12:54:39.846Z,23.34
2023-05-21T12:57:21.152Z,23.29
2023-05-21T12:59:47.993Z,23.35
2023-05-21T13:02:25.115Z,23.36
2023-05-21T13:05:02.028Z,23.36
2023-05-21T13:07:30.939Z,23.45
2023-05-21T13:09:58.141Z,23.48
2023-05-21T13:12:27.070Z,23.53
2023-05-21T13:14:55.406Z,23.57
2023-05-21T13:17:22.600Z,23.60
2023-05-21T13:20:08.911Z,23.52
2023-05-21T13:22:39.070Z,23.64
2023-05-21T13:25:07.199Z,23.59
2023-05-21T13:27:34.023Z,23.59
2023-05-21T13:30:01.974Z,23.62
2023-05-21T13:32:29.262Z,23.60
2023-05-21T13:34:56.196Z,23.66
2023-05-21T13:37:22.901Z,23.68
2023-05-21T13:39:49.753Z,23.72
2023-05-21T13:42:17.728Z,23.77
2023-05-21T13:44:44.491Z,23.77
2023-05-21T13:47:12.029Z,23.78
2023-05-21T13:49:39.481Z,23.81
2023-05-21T13:52:07.648Z,23.81
2023-05-21T13:54:34.783Z,23.81
2023-05-21T13:57:01.780Z,23.80
2023-05-21T13:59:29.643Z,23.79
2023-05-21T14:01:58.145Z,23.79
2023-05-21T14:04:25.062Z,23.86
2023-05-21T14:06:52.360Z,23.82
2023-05-21T14:09:19.355Z,23.83
2023-05-21T14:11:46.445Z,23.90
2023-05-21T14:14:18.700Z,23.88
2023-05-21T14:16:47.150Z,23.92
2023-05-21T14:19:14.335Z,23.97
2023-05-21T14:21:41.356Z,24.03
2023-05-21T14:24:08.303Z,24.09
2023-05-21T14:26:36.766Z,24.12
2023-05-21T14:29:03.452Z,24.15
2023-05-21T14:31:30.181Z,24.16
2023-05-21T14:33:56.935Z,24.25
2023-05-21T14:36:23.708Z,24.27
2023-05-21T14:38:50.613Z,24.29
2023-05-21T14:41:17.354Z,24.30
2023-05-21T14:43:44.219Z,24.34
2023-05-21T14:46:11.198Z,24.30
2023-05-21T14:48:37.930Z,24.35
2023-05-21T14:51:04.752Z,24.33
2023-05-21T14:53:32.222Z,24.34
2023-05-21T14:55:59.132Z,24.33
2023-05-21T14:58:26.044Z,24.36
2023-05-21T15:00:52.822Z,24.38
2023-05-21T15:03:19.793Z,24.40
2023-05-21T15:05:46.638Z,24.38
2023-05-21T15:08:13.432Z,24.36
2023-05-21T15:10:40.285Z,24.40
2023-05-21T15:13:09.202Z,24.43
2023-05-21T15:15:36.456Z,24.47
2023-05-21T15:18:03.466Z,24.48
2023-05-21T15:20:30.294Z,24.49
2023-05-21T15:23:15.370Z,24.52
2023-05-21T15:25:43.257Z,24.51
2023-05-21T15:28:10.067Z,24.50
2023-05-21T15:30:36.942Z,24.48
2023-05-21T15:33:03.726Z,24.47
2023-05-21T15:35:30.631Z,24.47
2023-05-21T15:37:58.983Z,24.46
2023-05-21T16:01:54.433Z,24.41
2023-05-21T16:04:21.295Z,24.42
2023-05-21T16:06:48.126Z,24.44
2023-05-21T16:09:15.429Z,24.44
2023-05-21T16:11:44.737Z,24.43
2023-05-21T16:14:12.031Z,24.41
2023-05-21T16:16:38.991Z,24.42
2023-05-21T16:19:06.088Z,24.40
2023-05-21T16:21:33.049Z,24.38
2023-05-21T16:24:00.551Z,24.41
2023-05-21T16:26:27.404Z,24.38
2023-05-21T16:28:54.154Z,24.36
2023-05-21T16:31:21.133Z,24.36
2023-05-21T16:33:47.980Z,24.37
2023-05-21T16:36:16.301Z,24.38
2023-05-21T16:38:44.647Z,24.38
2023-05-21T16:41:11.508Z,24.37
2023-05-21T16:43:38.306Z,24.37
2023-05-21T16:46:05.390Z,24.36
2023-05-21T16:48:32.799Z,24.33
2023-05-21T16:51:02.353Z,24.35
2023-05-21T16:53:29.191Z,24.32
2023-05-21T16:55:56.013Z,24.33
2023-05-21T16:58:22.837Z,24.30
2023-05-21T17:00:49.708Z,24.30
2023-05-21T17:03:17.037Z,24.33
2023-05-21T17:05:44.142Z,24.31
2023-05-21T17:08:10.901Z,24.32
2023-05-21T17:10:37.782Z,24.31
2023-05-21T17:13:17.483Z,24.30
2023-05-21T17:15:44.995Z,24.29
2023-05-21T17:18:12.053Z,24.26
2023-05-21T17:20:38.991Z,24.25
2023-05-21T17:23:05.819Z,24.24
2023-05-21T17:25:34.378Z,24.21
2023-05-21T17:28:01.631Z,24.18
2023-05-21T17:30:28.439Z,24.17
2023-05-21T17:32:55.382Z,24.15
2023-05-21T17:35:22.271Z,24.14
2023-05-21T17:37:49.499Z,24.10
2023-05-21T17:40:20.252Z,24.03
2023-05-21T17:42:47.405Z,24.04
2023-05-21T17:45:14.212Z,24.01
2023-05-21T17:47:41.164Z,23.99
2023-05-21T17:50:08.556Z,23.96
2023-05-21T17:52:35.372Z,23.93
2023-05-21T17:55:03.245Z,23.90
2023-05-21T17:57:30.620Z,23.88
2023-05-21T17:59:57.444Z,23.87
2023-05-21T18:02:24.362Z,23.82
2023-05-21T18:04:51.222Z,23.78
2023-05-21T18:07:17.964Z,23.79
2023-05-21T18:09:45.325Z,23.77
2023-05-21T18:12:12.098Z,23.75
2023-05-21T18:14:38.858Z,23.71
2023-05-21T18:17:05.988Z,23.72
2023-05-21T18:19:32.976Z,23.68
2023-05-21T18:21:59.942Z,23.66
2023-05-21T18:24:26.726Z,23.66
2023-05-21T18:26:53.655Z,23.61
2023-05-21T18:29:20.410Z,23.58
2023-05-21T18:31:47.531Z,23.56
2023-05-21T18:34:15.513Z,23.52
2023-05-21T18:36:42.649Z,23.53
2023-05-21T18:39:09.719Z,23.50
2023-05-21T18:41:37.414Z,23.47
2023-05-21T18:44:05.974Z,23.45
2023-05-21T18:46:33.125Z,23.40
2023-05-21T18:49:00.758Z,23.37
2023-05-21T18:51:27.734Z,23.31
2023-05-21T18:53:55.129Z,23.32
2023-05-21T18:56:22.638Z,23.28
2023-05-21T18:58:49.518Z,23.25
2023-05-21T19:01:17.713Z,23.24
2023-05-21T19:03:44.452Z,23.18
2023-05-21T19:06:11.188Z,23.16
2023-05-21T19:08:38.017Z,23.11
2023-05-21T19:11:05.326Z,23.12
2023-05-21T19:13:32.237Z,23.09
2023-05-21T19:15:59.100Z,23.05
2023-05-21T19:18:30.364Z,23.04
2023-05-21T19:20:57.590Z,23.01
2023-05-21T19:23:25.006Z,22.97
2023-05-21T19:25:51.802Z,22.98
2023-05-21T19:28:18.883Z,22.95
2023-05-21T19:30:46.426Z,22.94
2023-05-21T19:33:13.577Z,22.93
2023-05-21T19:35:41.938Z,22.89
2023-05-21T19:38:11.628Z,22.84
2023-05-21T19:40:38.768Z,22.81
2023-05-21T19:43:05.789Z,22.76
2023-05-21T19:45:32.721Z,22.72
2023-05-21T19:48:00.041Z,22.68
2023-05-21T19:50:28.849Z,22.69
2023-05-21T19:52:57.267Z,22.69
2023-05-21T19:55:24.844Z,22.70
2023-05-21T19:57:51.975Z,22.64
2023-05-21T20:00:19.262Z,22.66
2023-05-21T20:02:46.339Z,22.65
2023-05-21T20:05:13.691Z,22.63
2023-05-21T20:07:41.439Z,22.59
2023-05-21T20:10:08.790Z,22.57
2023-05-21T20:12:36.088Z,22.58
2023-05-21T20:15:03.446Z,22.55
2023-05-21T20:17:30.698Z,22.56
2023-05-21T20:19:59.109Z,22.54
2023-05-21T20:22:25.981Z,22.56
2023-05-21T20:24:53.176Z,22.56
2023-05-21T20:27:20.385Z,22.56
2023-05-21T20:29:47.098Z,22.53
2023-05-21T20:32:13.897Z,22.53
2023-05-21T20:34:54.362Z,22.50
2023-05-21T20:37:28.432Z,22.44
2023-05-21T20:39:57.750Z,22.40
2023-05-21T20:42:28.504Z,22.34
2023-05-21T20:44:58.811Z,22.32
2023-05-21T20:47:29.843Z,22.26
2023-05-21T20:50:00.033Z,22.27
2023-05-21T20:52:27.227Z,22.26
2023-05-21T20:54:54.844Z,22.24
2023-05-21T20:57:25.965Z,22.19
2023-05-21T20:59:53.394Z,22.19
2023-05-21T21:02:20.657Z,22.16
2023-05-21T21:04:49.143Z,22.17
2023-05-21T21:07:18.077Z,22.16
2023-05-21T21:09:46.595Z,22.10
2023-05-21T21:12:24.646Z,22.04
2023-05-21T21:14:52.386Z,22.02
2023-05-21T21:17:19.394Z,21.96
2023-05-21T21:19:46.172Z,21.92
2023-05-21T21:22:12.945Z,21.86
2023-05-21T21:24:39.789Z,21.84
2023-05-21T21:27:06.746Z,21.83
2023-05-21T21:29:33.546Z,21.82
2023-05-21T21:32:00.261Z,21.81
2023-05-21T21:34:27.021Z,21.77
2023-05-21T21:36:54.444Z,21.78
2023-05-21T21:39:21.261Z,21.73
2023-05-21T21:41:47.983Z,21.72
2023-05-21T21:44:14.737Z,21.68
2023-05-21T21:46:41.606Z,21.65
2023-05-21T21:49:08.397Z,21.60
2023-05-21T21:51:35.327Z,21.62
2023-05-21T21:54:02.232Z,21.57
2023-05-21T21:56:29.667Z,21.58
2023-05-21T21:58:56.439Z,21.50
2023-05-21T22:01:23.227Z,21.55
2023-05-21T22:03:50.269Z,21.50
2023-05-21T22:06:17.087Z,21.44
2023-05-21T22:08:44.184Z,21.50
2023-05-21T22:11:11.580Z,21.45
2023-05-21T22:13:38.479Z,21.51
2023-05-21T22:16:05.621Z,21.51
2023-05-21T22:18:40.914Z,21.45
2023-05-21T22:21:10.126Z,21.45
2023-05-21T22:23:38.083Z,21.42
2023-05-21T22:26:04.943Z,21.35
2023-05-21T22:28:31.742Z,21.34
2023-05-21T22:30:58.924Z,21.34
2023-05-21T22:33:26.601Z,21.35
2023-05-21T22:35:54.180Z,21.36
2023-05-21T22:38:21.482Z,21.35
2023-05-21T22:40:48.444Z,21.34
2023-05-21T22:43:15.237Z,21.32
2023-05-21T22:45:42.245Z,21.27
2023-05-21T22:48:09.474Z,21.23
2023-05-21T22:50:38.857Z,21.27
2023-05-21T22:53:06.633Z,21.30
2023-05-21T22:55:33.594Z,21.27
2023-05-21T22:58:00.528Z,21.28
2023-05-21T23:00:27.472Z,21.25
2023-05-21T23:02:54.968Z,21.22
2023-05-21T23:05:22.435Z,21.21
2023-05-21T23:07:49.479Z,21.15
2023-05-21T23:10:16.269Z,21.13
2023-05-21T23:12:43.032Z,21.10
2023-05-21T23:15:10.839Z,21.06
2023-05-21T23:17:38.099Z,21.05
2023-05-21T23:20:06.156Z,21.02
2023-05-21T23:22:32.958Z,21.01
2023-05-21T23:24:59.739Z,20.99
2023-05-21T23:27:26.530Z,20.97
2023-05-21T23:29:53.436Z,20.92
2023-05-21T23:32:20.347Z,20.95
2023-05-21T23:34:47.237Z,20.96
2023-05-21T23:37:14.100Z,20.92
2023-05-21T23:39:40.932Z,20.89
2023-05-21T23:42:07.743Z,20.91
2023-05-21T23:44:34.732Z,20.86
2023-05-21T23:47:01.640Z,20.84
2023-05-21T23:49:28.398Z,20.81
2023-05-21T23:51:55.446Z,20.85
2023-05-21T23:54:22.416Z,20.88
2023-05-21T23:56:49.293Z,20.84
2023-05-21T23:59:18.351Z,20.78
